Time;durP1;ratioP1;P1;durP2;ratioP2;P2;SDS_P1;SDS_P2;PMS_P1;PMS_P2;Temp;Humidity;BMP_temperature;BMP_pressure;BME280_temperature;BME280_humidity;BME280_pressure;Samples;Min_cycle;Max_cycle;Signal;HPM_P1;HPM_P2
2022/12/04 00:01:18;;;;;;;68.40;40.53;;;0.00;20.50;;;;;;5049313;28;20465;-50
2022/12/04 00:03:45;;;;;;;71.73;42.90;;;0.00;74.10;;;;;;5044529;28;20559;-51
2022/12/04 00:06:13;;;;;;;74.40;41.87;;;0.00;72.30;;;;;;5045030;28;20496;-51
2022/12/04 00:08:42;;;;;;;70.20;41.60;;;0.00;20.90;;;;;;5050688;28;20469;-51
2022/12/04 00:11:10;;;;;;;71.07;40.40;;;0.00;20.80;;;;;;5053777;28;21240;-52
2022/12/04 00:13:37;;;;;;;67.53;40.37;;;0.00;21.80;;;;;;5040173;28;20454;-52
2022/12/04 00:16:04;;;;;;;67.80;41.10;;;0.00;22.00;;;;;;5053682;28;20847;-52
2022/12/04 00:18:31;;;;;;;75.90;41.67;;;0.00;72.30;;;;;;5050351;28;20851;-51
2022/12/04 00:20:58;;;;;;;76.70;42.40;;;0.00;72.20;;;;;;5049286;28;20531;-51
2022/12/04 00:23:24;;;;;;;64.53;40.60;;;0.00;22.60;;;;;;5044575;28;21117;-53
2022/12/04 00:25:52;;;;;;;74.00;41.70;;;0.00;21.50;;;;;;5053907;28;20539;-51
2022/12/04 00:28:19;;;;;;;73.50;41.77;;;0.00;22.30;;;;;;5046200;28;20888;-52
2022/12/04 00:30:46;;;;;;;76.10;42.70;;;0.00;72.50;;;;;;5047116;28;20459;-51
2022/12/04 00:33:13;;;;;;;69.43;40.60;;;0.00;73.20;;;;;;5041075;28;20540;-52
2022/12/04 00:35:40;;;;;;;74.73;42.53;;;-0.10;20.60;;;;;;5047258;28;21004;-51
2022/12/04 00:38:06;;;;;;;72.80;42.47;;;-0.10;20.80;;;;;;5042631;28;20528;-52
2022/12/04 00:40:33;;;;;;;68.17;40.67;;;-0.10;83.10;;;;;;5049991;28;20488;-51
2022/12/04 00:43:01;;;;;;;68.47;40.20;;;-0.10;82.40;;;;;;5045227;28;20528;-51
2022/12/04 00:45:28;;;;;;;70.30;41.50;;;-0.10;85.60;;;;;;5048365;28;20845;-52
2022/12/04 00:47:54;;;;;;;69.50;42.50;;;0.00;95.50;;;;;;5047384;28;20462;-51
2022/12/04 00:50:21;;;;;;;72.60;42.80;;;0.00;89.20;;;;;;5054790;28;20491;-52
2022/12/04 00:52:48;;;;;;;75.83;42.80;;;0.00;74.40;;;;;;5045221;28;20463;-50
2022/12/04 00:55:14;;;;;;;71.80;42.73;;;0.00;73.50;;;;;;5052780;28;20493;-50
2022/12/04 00:57:41;;;;;;;77.43;43.40;;;-0.10;20.20;;;;;;5040496;28;20466;-51
2022/12/04 01:00:10;;;;;;;73.20;42.73;;;0.00;89.80;;;;;;5046447;28;20914;-50
2022/12/04 01:02:36;;;;;;;72.80;42.50;;;0.00;99.90;;;;;;5046725;28;20493;-52
2022/12/04 01:05:04;;;;;;;72.27;42.83;;;0.00;72.10;;;;;;5046544;28;20536;-51
2022/12/04 01:07:30;;;;;;;78.60;44.37;;;-0.10;20.50;;;;;;5044491;28;20458;-51
2022/12/04 01:09:57;;;;;;;74.20;40.70;;;0.00;77.60;;;;;;5050868;28;20494;-51
2022/12/04 01:12:23;;;;;;;72.07;44.00;;;0.00;83.60;;;;;;5049502;28;20879;-51
2022/12/04 01:14:50;;;;;;;82.93;44.47;;;0.00;95.50;;;;;;5045810;28;20567;-51
2022/12/04 01:17:18;;;;;;;73.60;42.97;;;0.00;86.50;;;;;;5047804;28;20471;-52
2022/12/04 01:19:45;;;;;;;82.17;42.60;;;0.00;91.90;;;;;;5041951;28;20465;-51
2022/12/04 01:22:11;;;;;;;76.40;43.20;;;0.00;85.90;;;;;;5039296;28;20454;-52
2022/12/04 01:24:38;;;;;;;75.57;44.13;;;0.00;87.70;;;;;;5044519;28;20555;-51
2022/12/04 01:27:04;;;;;;;80.07;42.63;;;0.00;99.90;;;;;;5043081;28;20972;-51
2022/12/04 01:29:31;;;;;;;79.03;45.23;;;0.10;99.90;;;;;;5044303;28;20548;-51
2022/12/04 01:31:58;;;;;;;80.63;46.97;;;0.00;99.90;;;;;;5040268;28;21359;-51
2022/12/04 01:34:26;;;;;;;75.60;43.80;;;0.00;99.90;;;;;;5042687;28;20549;-51
2022/12/04 01:36:52;;;;;;;77.67;44.03;;;0.10;99.90;;;;;;5043481;28;20502;-51
2022/12/04 01:39:19;;;;;;;78.90;44.80;;;0.10;99.90;;;;;;5043603;28;20539;-51
2022/12/04 01:41:49;;;;;;;77.50;43.93;;;0.10;99.90;;;;;;5048837;28;20512;-51
2022/12/04 01:44:17;;;;;;;79.80;44.73;;;0.10;99.90;;;;;;5044143;28;20878;-52
2022/12/04 01:46:45;;;;;;;74.33;43.73;;;0.10;99.90;;;;;;5048279;28;20477;-52
2022/12/04 01:49:16;;;;;;;80.00;46.00;;;0.10;99.90;;;;;;5047576;28;20457;-51
2022/12/04 01:51:48;;;;;;;78.97;43.60;;;0.00;99.90;;;;;;5046370;28;20457;-51
2022/12/04 01:54:19;;;;;;;71.93;44.10;;;0.10;99.90;;;;;;5044030;28;20454;-52
2022/12/04 01:56:50;;;;;;;80.10;45.07;;;0.10;99.90;;;;;;5042262;28;20527;-51
2022/12/04 01:59:21;;;;;;;73.30;42.13;;;0.10;99.90;;;;;;5041499;28;21017;-51
2022/12/04 02:01:55;;;;;;;74.40;45.07;;;0.10;99.90;;;;;;5044107;28;20461;-51
2022/12/04 02:04:22;;;;;;;85.47;48.20;;;0.00;99.90;;;;;;5040609;28;20602;-53
2022/12/04 02:06:50;;;;;;;79.40;46.07;;;0.10;99.90;;;;;;5043809;28;20477;-52
2022/12/04 02:09:18;;;;;;;77.63;45.27;;;0.00;99.90;;;;;;5045564;28;20527;-51
2022/12/04 02:11:52;;;;;;;78.90;44.73;;;0.10;99.90;;;;;;5038124;28;20930;-52
2022/12/04 02:14:30;;;;;;;80.33;46.97;;;0.00;99.90;;;;;;5050473;28;20877;-51
2022/12/04 02:17:04;;;;;;;77.10;43.33;;;0.00;99.90;;;;;;5048815;28;20457;-53
2022/12/04 02:19:51;;;;;;;76.47;45.17;;;0.10;99.90;;;;;;5046491;28;20462;-51
2022/12/04 02:22:30;;;;;;;77.70;45.63;;;0.00;99.90;;;;;;5044214;28;20493;-53
2022/12/04 02:24:59;;;;;;;79.90;47.03;;;0.10;99.90;;;;;;5035872;28;20496;-53
2022/12/04 02:27:52;;;;;;;76.17;45.67;;;0.10;99.90;;;;;;5044740;28;20465;-51
2022/12/04 02:30:20;;;;;;;77.03;45.87;;;0.10;99.90;;;;;;5044953;28;20519;-51
2022/12/04 02:32:57;;;;;;;84.77;46.93;;;0.10;99.90;;;;;;5045476;28;20936;-52
2022/12/04 02:35:27;;;;;;;82.07;45.67;;;0.10;99.90;;;;;;5040636;28;20859;-51
2022/12/04 02:37:58;;;;;;;82.27;46.57;;;0.10;99.90;;;;;;5047558;28;20511;-52
2022/12/04 02:40:29;;;;;;;89.80;47.17;;;0.10;99.90;;;;;;5044467;28;20904;-52
2022/12/04 02:43:00;;;;;;;82.03;46.10;;;0.10;99.90;;;;;;5041810;28;20458;-51
2022/12/04 02:45:33;;;;;;;96.77;46.77;;;0.10;99.90;;;;;;5041969;28;20487;-52
2022/12/04 02:48:02;;;;;;;78.00;45.87;;;0.00;99.90;;;;;;5044343;28;20465;-52
2022/12/04 02:50:32;;;;;;;86.30;47.77;;;0.10;99.90;;;;;;5046664;28;20884;-52
2022/12/04 02:53:03;;;;;;;85.47;46.87;;;0.10;99.90;;;;;;5039271;28;20532;-51
2022/12/04 02:55:34;;;;;;;86.30;46.60;;;0.10;99.90;;;;;;5045624;28;20481;-51
2022/12/04 02:58:06;;;;;;;82.67;47.67;;;0.10;99.90;;;;;;5038693;28;20462;-51
2022/12/04 03:00:36;;;;;;;94.53;49.73;;;0.00;99.90;;;;;;5039399;28;20454;-52
2022/12/04 03:03:09;;;;;;;85.80;47.60;;;0.00;99.90;;;;;;5038274;28;20458;-51
2022/12/04 03:05:49;;;;;;;88.20;47.83;;;0.10;99.90;;;;;;5035400;28;20487;-51
2022/12/04 03:08:19;;;;;;;88.40;46.30;;;0.10;99.90;;;;;;5035570;28;20475;-51
2022/12/04 03:10:49;;;;;;;84.57;48.30;;;0.00;99.90;;;;;;5037815;28;20451;-51
2022/12/04 03:13:20;;;;;;;82.13;45.97;;;0.10;99.90;;;;;;5040275;28;20498;-52
2022/12/04 03:15:53;;;;;;;75.13;42.53;;;0.10;99.90;;;;;;5045854;28;20481;-52
2022/12/04 03:18:26;;;;;;;84.43;47.53;;;0.10;99.90;;;;;;5040219;28;20466;-51
2022/12/04 03:20:57;;;;;;;88.00;46.97;;;0.10;99.90;;;;;;5047407;28;20951;-52
2022/12/04 03:23:28;;;;;;;81.13;47.20;;;0.20;99.90;;;;;;5049429;28;20885;-51
2022/12/04 03:26:01;;;;;;;83.80;46.87;;;0.10;99.90;;;;;;5036591;28;20513;-51
2022/12/04 03:28:34;;;;;;;87.17;47.60;;;0.10;99.90;;;;;;5035639;28;21191;-51
2022/12/04 03:31:06;;;;;;;92.47;48.40;;;0.10;99.90;;;;;;5041145;28;20987;-51
2022/12/04 03:33:39;;;;;;;78.90;44.90;;;0.10;99.90;;;;;;5042342;28;20457;-51
2022/12/04 03:36:14;;;;;;;88.03;47.13;;;0.10;99.90;;;;;;5042393;28;20566;-51
2022/12/04 03:38:46;;;;;;;91.87;48.87;;;0.10;99.90;;;;;;5038060;28;20453;-51
2022/12/04 03:41:21;;;;;;;81.57;47.50;;;0.10;99.90;;;;;;5034938;28;20461;-52
2022/12/04 03:43:51;;;;;;;81.30;44.53;;;0.10;99.90;;;;;;5037091;28;20485;-51
2022/12/04 03:46:26;;;;;;;86.57;48.17;;;0.10;99.90;;;;;;5034309;28;20487;-52
2022/12/04 03:48:56;;;;;;;86.67;47.87;;;0.10;99.90;;;;;;5067869;22;20488;-53
2022/12/04 03:51:29;;;;;;;89.63;47.83;;;0.10;99.90;;;;;;5062305;28;20523;-53
2022/12/04 03:54:00;;;;;;;86.00;45.90;;;0.10;99.90;;;;;;5065477;28;20453;-53
2022/12/04 03:56:31;;;;;;;93.50;48.00;;;0.10;99.90;;;;;;5066109;28;20603;-53
2022/12/04 03:59:02;;;;;;;89.43;47.40;;;0.10;99.90;;;;;;5064671;28;20871;-53
2022/12/04 04:01:44;;;;;;;86.60;48.53;;;0.10;99.90;;;;;;5064513;28;20468;-53
2022/12/04 04:04:15;;;;;;;88.93;48.90;;;0.10;99.90;;;;;;5071636;28;20530;-52
2022/12/04 04:06:47;;;;;;;77.47;44.30;;;0.10;99.90;;;;;;5073173;28;20962;-52
2022/12/04 04:09:19;;;;;;;93.10;47.30;;;0.10;99.90;;;;;;5067550;28;20472;-53
2022/12/04 04:11:49;;;;;;;86.93;46.73;;;0.10;99.90;;;;;;5070521;28;20456;-54
2022/12/04 04:25:43;;;;;;;75.80;43.83;;;0.20;99.90;;;;;;5071654;28;20448;-52
2022/12/04 04:28:28;;;;;;;84.97;45.17;;;0.20;99.90;;;;;;5066868;28;20476;-52
2022/12/04 04:31:02;;;;;;;84.23;46.17;;;0.20;99.90;;;;;;5067143;28;20468;-52
2022/12/04 04:33:32;;;;;;;86.03;46.83;;;0.20;99.90;;;;;;5068151;28;20494;-54
2022/12/04 04:36:07;;;;;;;88.63;48.87;;;0.20;99.90;;;;;;5068988;28;20514;-53
2022/12/04 04:38:40;;;;;;;87.90;46.80;;;0.20;99.90;;;;;;5068318;28;20479;-53
2022/12/04 04:41:11;;;;;;;86.03;45.90;;;0.20;99.90;;;;;;5070851;28;20456;-52
2022/12/04 04:43:47;;;;;;;84.03;46.47;;;0.20;99.90;;;;;;5072326;28;20457;-53
2022/12/04 04:46:19;;;;;;;78.83;44.10;;;0.20;99.90;;;;;;5069856;28;20526;-53
2022/12/04 04:48:50;;;;;;;86.83;46.77;;;0.20;99.90;;;;;;5071710;28;20896;-53
2022/12/04 04:51:18;;;;;;;87.03;45.77;;;0.20;99.90;;;;;;5071586;28;20954;-53
2022/12/04 04:53:49;;;;;;;84.47;43.80;;;0.20;99.90;;;;;;5069083;28;20514;-52
2022/12/04 04:56:16;;;;;;;89.60;46.60;;;0.30;99.90;;;;;;5068658;28;20862;-53
2022/12/04 04:58:43;;;;;;;81.17;45.00;;;0.20;99.90;;;;;;5073246;28;20538;-53
2022/12/04 05:01:13;;;;;;;88.83;46.83;;;0.20;99.90;;;;;;5074460;28;20461;-52
2022/12/04 05:03:41;;;;;;;88.23;47.00;;;0.30;99.90;;;;;;5071840;28;20469;-53
2022/12/04 05:06:09;;;;;;;89.53;45.97;;;0.30;99.90;;;;;;5072686;28;20452;-52
2022/12/04 05:08:36;;;;;;;81.57;45.80;;;0.30;99.90;;;;;;5070481;28;21384;-53
2022/12/04 05:11:04;;;;;;;90.53;48.37;;;0.30;99.90;;;;;;5071359;28;20457;-53
2022/12/04 05:13:31;;;;;;;77.93;43.07;;;0.30;99.90;;;;;;5068279;28;20464;-53
2022/12/04 05:15:59;;;;;;;81.13;46.50;;;0.30;99.90;;;;;;5064750;28;20489;-53
2022/12/04 05:18:26;;;;;;;84.90;46.00;;;0.30;99.90;;;;;;5070380;28;20481;-52
2022/12/04 05:20:53;;;;;;;76.87;43.70;;;0.30;99.90;;;;;;5071616;28;20456;-52
2022/12/04 05:23:21;;;;;;;89.27;45.13;;;0.30;99.90;;;;;;5067110;28;20530;-53
2022/12/04 05:25:48;;;;;;;83.23;48.93;;;0.30;99.90;;;;;;5062851;28;20508;-54
2022/12/04 05:28:15;;;;;;;80.03;43.57;;;0.30;99.90;;;;;;5070824;28;20554;-52
2022/12/04 05:30:42;;;;;;;78.60;44.30;;;0.30;99.90;;;;;;5070387;28;20485;-53
2022/12/04 05:33:10;;;;;;;82.07;46.47;;;0.40;99.90;;;;;;5070753;28;20456;-53
2022/12/04 05:35:36;;;;;;;86.50;45.57;;;0.40;99.90;;;;;;5068471;28;20510;-53
2022/12/04 05:38:03;;;;;;;81.30;43.70;;;0.40;99.90;;;;;;5067861;28;20524;-53
2022/12/04 05:40:31;;;;;;;87.87;45.60;;;0.40;99.90;;;;;;5064617;28;20957;-52
2022/12/04 05:42:57;;;;;;;82.37;44.50;;;0.40;99.90;;;;;;5060724;28;20523;-52
2022/12/04 05:45:25;;;;;;;85.30;44.37;;;0.30;99.90;;;;;;5067601;28;20546;-52
2022/12/04 05:47:52;;;;;;;75.40;44.50;;;0.40;99.90;;;;;;5069477;28;21001;-53
2022/12/04 05:50:19;;;;;;;86.23;46.87;;;0.40;99.90;;;;;;5069245;28;20468;-53
2022/12/04 05:52:45;;;;;;;85.40;46.43;;;0.40;99.90;;;;;;5069971;28;20461;-53
2022/12/04 05:55:12;;;;;;;81.17;43.83;;;0.40;99.90;;;;;;5065894;28;20514;-53
2022/12/04 05:57:40;;;;;;;80.00;43.80;;;0.40;99.90;;;;;;5067994;28;20538;-53
2022/12/04 06:00:08;;;;;;;85.17;45.77;;;0.40;99.90;;;;;;5066911;28;20525;-53
2022/12/04 06:02:35;;;;;;;86.73;46.30;;;0.40;99.90;;;;;;5070506;28;20977;-53
2022/12/04 06:05:01;;;;;;;80.87;45.27;;;0.40;99.90;;;;;;5068464;28;20538;-53
2022/12/04 06:07:28;;;;;;;79.70;42.97;;;0.40;99.90;;;;;;5068587;28;20488;-53
2022/12/04 06:09:55;;;;;;;74.63;41.97;;;0.40;99.90;;;;;;5070659;28;20468;-53
2022/12/04 06:12:21;;;;;;;79.83;43.00;;;0.40;99.90;;;;;;5067635;28;20469;-54
2022/12/04 06:14:49;;;;;;;76.17;42.53;;;0.40;99.90;;;;;;5067245;28;20449;-52
2022/12/04 06:17:16;;;;;;;76.53;42.60;;;0.50;99.90;;;;;;5066492;28;20981;-49
2022/12/04 06:19:43;;;;;;;78.57;43.40;;;0.50;99.90;;;;;;5067503;28;20457;-50
2022/12/04 06:22:09;;;;;;;85.03;46.43;;;0.40;99.90;;;;;;5071350;28;22020;-49
2022/12/04 06:24:36;;;;;;;86.70;43.73;;;0.40;99.90;;;;;;5069501;28;20541;-50
2022/12/04 06:27:02;;;;;;;78.80;43.47;;;0.40;99.90;;;;;;5066405;28;20518;-50
2022/12/04 06:29:29;;;;;;;73.53;43.30;;;0.40;99.90;;;;;;5067071;28;20468;-50
2022/12/04 06:31:57;;;;;;;80.83;45.20;;;0.40;99.90;;;;;;5069118;28;21035;-50
2022/12/04 06:34:24;;;;;;;85.37;44.10;;;0.40;99.90;;;;;;5066499;28;20515;-50
2022/12/04 06:36:50;;;;;;;75.57;42.87;;;0.50;99.90;;;;;;5066955;28;20457;-50
2022/12/04 06:39:17;;;;;;;75.33;42.80;;;0.50;99.90;;;;;;5068553;28;20526;-50
2022/12/04 06:41:43;;;;;;;77.60;42.60;;;0.50;99.90;;;;;;5068713;28;20466;-50
2022/12/04 06:44:10;;;;;;;79.10;45.30;;;0.50;99.90;;;;;;5063952;28;21030;-50
2022/12/04 06:46:37;;;;;;;76.77;42.50;;;0.50;99.90;;;;;;5067468;28;20502;-51
2022/12/04 06:49:05;;;;;;;89.60;44.80;;;0.60;99.90;;;;;;5066219;28;20490;-50
2022/12/04 06:51:33;;;;;;;81.30;44.27;;;0.60;99.90;;;;;;5070390;28;20541;-50
2022/12/04 06:54:01;;;;;;;79.37;43.13;;;0.50;99.90;;;;;;5064306;28;20466;-49
2022/12/04 06:56:30;;;;;;;79.10;45.20;;;0.50;99.90;;;;;;5068093;28;20460;-50
2022/12/04 06:59:00;;;;;;;79.10;44.30;;;0.60;99.90;;;;;;5068944;28;20480;-50
2022/12/04 07:01:29;;;;;;;83.83;46.20;;;0.50;99.90;;;;;;5067627;28;20518;-49
2022/12/04 07:03:56;;;;;;;73.03;42.20;;;0.50;99.90;;;;;;5062599;28;20467;-49
2022/12/04 07:06:26;;;;;;;79.57;44.40;;;0.60;99.90;;;;;;5069228;28;20485;-50
2022/12/04 07:08:55;;;;;;;74.83;44.43;;;0.60;99.90;;;;;;5068437;28;20511;-50
2022/12/04 07:11:22;;;;;;;77.97;45.33;;;0.60;99.90;;;;;;5060644;28;20872;-50
2022/12/04 07:13:49;;;;;;;81.00;44.33;;;0.60;99.90;;;;;;5070443;28;20835;-50
2022/12/04 07:16:18;;;;;;;69.73;41.23;;;0.60;99.90;;;;;;5067836;28;20460;-50
2022/12/04 07:18:45;;;;;;;78.00;43.60;;;0.70;99.90;;;;;;5069693;28;20477;-50
2022/12/04 07:21:15;;;;;;;84.00;45.77;;;0.70;99.90;;;;;;5070740;28;20465;-50
2022/12/04 07:23:44;;;;;;;75.20;40.90;;;0.70;99.90;;;;;;5067133;28;20466;-50
2022/12/04 07:26:13;;;;;;;81.77;43.90;;;0.70;99.90;;;;;;5069373;28;20489;-50
2022/12/04 07:28:41;;;;;;;76.27;43.20;;;0.70;99.90;;;;;;5068551;28;20481;-50
2022/12/04 07:31:10;;;;;;;86.13;45.57;;;0.70;99.90;;;;;;5067715;28;20468;-50
2022/12/04 07:33:37;;;;;;;72.50;42.30;;;0.70;99.90;;;;;;5067223;28;20469;-50
2022/12/04 07:36:07;;;;;;;75.63;40.83;;;0.70;99.90;;;;;;5069526;28;20910;-50
2022/12/04 07:38:34;;;;;;;76.17;42.83;;;0.70;99.90;;;;;;5071231;28;21067;-50
2022/12/04 07:41:04;;;;;;;78.83;44.17;;;0.70;99.90;;;;;;5070216;28;20498;-50
2022/12/04 07:43:31;;;;;;;81.13;43.40;;;0.70;99.90;;;;;;5068025;28;20460;-50
2022/12/04 07:45:58;;;;;;;76.80;43.10;;;0.80;99.90;;;;;;5067181;28;20485;-50
2022/12/04 07:48:25;;;;;;;80.40;42.10;;;0.80;99.90;;;;;;5073232;28;20489;-50
2022/12/04 07:51:02;;;;;;;75.07;43.40;;;0.80;99.90;;;;;;5070589;28;20460;-50
2022/12/04 07:53:28;;;;;;;73.60;42.20;;;0.80;99.90;;;;;;5072823;28;20456;-51
2022/12/04 07:55:55;;;;;;;75.57;43.47;;;0.80;99.90;;;;;;5071854;28;20449;-55
2022/12/04 07:58:23;;;;;;;81.30;42.47;;;0.80;99.90;;;;;;5073329;28;20480;-54
2022/12/04 08:00:49;;;;;;;76.10;41.10;;;0.80;99.90;;;;;;5069916;28;20465;-57
2022/12/04 08:03:16;;;;;;;75.93;40.50;;;0.80;99.90;;;;;;5070591;28;20894;-56
2022/12/04 08:05:43;;;;;;;71.77;41.10;;;0.90;99.90;;;;;;5071729;28;20527;-56
2022/12/04 08:08:09;;;;;;;84.07;43.17;;;0.80;99.90;;;;;;5068826;28;21487;-58
2022/12/04 08:10:36;;;;;;;76.13;41.47;;;0.90;99.90;;;;;;5075831;28;20473;-57
2022/12/04 08:13:02;;;;;;;80.37;44.47;;;0.90;99.90;;;;;;5081646;28;21933;-57
2022/12/04 08:15:30;;;;;;;85.70;44.43;;;0.90;99.90;;;;;;5081781;28;20460;-59
2022/12/04 08:17:57;;;;;;;76.03;41.90;;;0.90;99.90;;;;;;5080381;28;20606;-59
2022/12/04 08:20:23;;;;;;;72.33;43.90;;;1.00;99.90;;;;;;5075187;28;20518;-58
2022/12/04 08:22:50;;;;;;;77.93;44.60;;;1.00;99.90;;;;;;5073170;28;20879;-58
2022/12/04 08:25:17;;;;;;;77.67;44.47;;;1.00;99.90;;;;;;5063603;28;20488;-57
2022/12/04 08:27:45;;;;;;;75.73;41.57;;;1.00;99.90;;;;;;5070075;28;20572;-57
2022/12/04 08:30:13;;;;;;;72.73;40.60;;;1.00;99.90;;;;;;5067385;28;20546;-57
2022/12/04 08:32:41;;;;;;;78.70;41.93;;;1.00;99.90;;;;;;5074208;28;20453;-57
2022/12/04 08:35:08;;;;;;;79.67;43.80;;;0.90;99.90;;;;;;5072780;28;20453;-57
2022/12/04 08:37:34;;;;;;;80.10;43.53;;;1.00;99.90;;;;;;5071573;28;20484;-57
2022/12/04 08:40:01;;;;;;;75.63;42.07;;;1.00;99.90;;;;;;5069862;28;20457;-58
2022/12/04 08:42:28;;;;;;;76.50;44.63;;;0.90;99.90;;;;;;5066684;28;20457;-57
2022/12/04 08:44:54;;;;;;;71.30;40.23;;;1.00;99.90;;;;;;5067295;28;20831;-57
2022/12/04 08:47:21;;;;;;;77.50;42.03;;;1.10;99.90;;;;;;5071514;28;20530;-57
2022/12/04 08:49:49;;;;;;;86.20;45.60;;;1.10;99.90;;;;;;5068203;28;20514;-59
2022/12/04 08:52:16;;;;;;;83.33;45.30;;;1.00;99.90;;;;;;5066315;28;20518;-53
2022/12/04 08:54:42;;;;;;;85.37;44.17;;;1.00;99.90;;;;;;5067944;28;20547;-54
2022/12/04 08:57:09;;;;;;;84.53;42.00;;;1.10;99.90;;;;;;5070800;28;20514;-53
2022/12/04 08:59:35;;;;;;;79.90;44.00;;;1.00;99.90;;;;;;5065672;28;20499;-53
2022/12/04 09:02:02;;;;;;;88.30;47.10;;;1.10;99.90;;;;;;5067978;28;20514;-53
2022/12/04 09:04:28;;;;;;;85.63;44.30;;;1.10;99.90;;;;;;5066207;28;20540;-53
2022/12/04 09:06:56;;;;;;;76.40;41.97;;;1.10;99.90;;;;;;5064628;28;20512;-53
2022/12/04 09:09:23;;;;;;;79.37;42.53;;;1.10;99.90;;;;;;5064213;28;20963;-54
2022/12/04 09:11:50;;;;;;;75.90;42.77;;;1.10;99.90;;;;;;5065077;28;20464;-54
2022/12/04 09:14:17;;;;;;;77.27;40.70;;;1.10;99.90;;;;;;5070572;28;20465;-53
2022/12/04 09:16:44;;;;;;;74.13;41.00;;;1.10;99.90;;;;;;5065989;28;20461;-53
2022/12/04 09:19:11;;;;;;;80.13;42.57;;;1.10;99.90;;;;;;5071050;28;20476;-52
2022/12/04 09:21:37;;;;;;;83.20;43.60;;;1.10;99.90;;;;;;5071057;28;20465;-53
2022/12/04 09:24:06;;;;;;;75.33;40.73;;;1.10;99.90;;;;;;5069283;28;20480;-53
2022/12/04 09:26:33;;;;;;;79.00;43.60;;;1.10;99.90;;;;;;5062800;28;20573;-53
2022/12/04 09:29:02;;;;;;;77.20;41.63;;;1.20;99.90;;;;;;5068588;28;20986;-53
2022/12/04 09:31:29;;;;;;;76.77;40.80;;;1.10;99.90;;;;;;5064838;28;20515;-54
2022/12/04 09:33:58;;;;;;;82.67;45.27;;;1.20;99.90;;;;;;5070503;28;21024;-52
2022/12/04 09:36:25;;;;;;;80.37;43.03;;;1.20;99.90;;;;;;5062797;28;20457;-57
2022/12/04 09:38:53;;;;;;;78.90;42.60;;;1.20;99.90;;;;;;5068054;28;20480;-50
2022/12/04 09:41:49;;;;;;;76.10;41.87;;;1.10;99.90;;;;;;5080315;28;20457;-54
2022/12/04 09:44:20;;;;;;;78.27;43.37;;;1.20;99.90;;;;;;5068468;28;20891;-57
2022/12/04 09:46:52;;;;;;;76.70;40.60;;;1.20;99.90;;;;;;5067837;28;20480;-53
2022/12/04 09:49:23;;;;;;;75.90;39.13;;;1.20;99.90;;;;;;5065664;28;20495;-52
2022/12/04 09:51:52;;;;;;;79.83;43.30;;;1.10;99.90;;;;;;5070982;28;20465;-53
2022/12/04 09:54:22;;;;;;;83.00;43.73;;;1.20;99.90;;;;;;5070324;28;21007;-52
2022/12/04 09:56:54;;;;;;;80.77;42.47;;;1.20;99.90;;;;;;5066723;28;20464;-51
2022/12/04 09:59:23;;;;;;;81.30;43.40;;;1.20;99.90;;;;;;5067112;28;20484;-57
2022/12/04 10:01:55;;;;;;;78.60;42.47;;;1.20;99.90;;;;;;5063330;28;20472;-57
2022/12/04 10:04:22;;;;;;;86.20;42.73;;;1.30;99.90;;;;;;5068112;28;20509;-57
2022/12/04 10:06:59;;;;;;;83.53;44.27;;;1.30;99.90;;;;;;5066361;28;20484;-57
2022/12/04 10:09:31;;;;;;;72.50;40.37;;;1.20;99.90;;;;;;5065679;28;20539;-57
2022/12/04 10:12:12;;;;;;;79.73;43.10;;;1.30;99.90;;;;;;5062672;28;20461;-57
2022/12/04 10:15:10;;;;;;;81.13;42.17;;;1.20;99.90;;;;;;5066632;28;20457;-53
2022/12/04 10:17:52;;;;;;;87.03;41.90;;;1.30;99.90;;;;;;5063199;28;20484;-53
2022/12/04 10:20:36;;;;;;;88.83;43.87;;;1.20;99.90;;;;;;5058223;28;21326;-53
2022/12/04 10:23:09;;;;;;;85.63;43.27;;;1.30;99.90;;;;;;5059235;28;20526;-53
2022/12/04 10:25:38;;;;;;;73.17;39.17;;;1.20;99.90;;;;;;5069449;28;20538;-53
2022/12/04 10:28:24;;;;;;;74.30;41.30;;;1.30;99.90;;;;;;5070089;28;20484;-57
2022/12/04 10:30:53;;;;;;;70.33;40.60;;;1.30;99.90;;;;;;5060581;28;20514;-57
2022/12/04 10:33:24;;;;;;;72.40;39.57;;;1.40;99.90;;;;;;5071369;28;20464;-58
2022/12/04 10:35:52;;;;;;;78.77;40.77;;;1.30;99.90;;;;;;5069389;28;20461;-56
2022/12/04 10:38:29;;;;;;;72.47;38.40;;;1.40;99.90;;;;;;5067181;28;20883;-57
2022/12/04 10:40:59;;;;;;;66.33;37.47;;;1.30;99.90;;;;;;5062378;28;20464;-56
2022/12/04 10:43:36;;;;;;;71.13;39.60;;;1.30;99.90;;;;;;5070463;28;20453;-57
2022/12/04 10:46:02;;;;;;;70.20;39.33;;;1.40;99.90;;;;;;5066940;28;20538;-57
2022/12/04 10:48:35;;;;;;;73.03;39.63;;;1.30;99.90;;;;;;5071078;28;20492;-57
2022/12/04 10:51:02;;;;;;;71.20;38.53;;;1.40;99.90;;;;;;5067249;28;20537;-57
2022/12/04 10:53:31;;;;;;;75.40;38.70;;;1.40;99.90;;;;;;5065495;28;20522;-57
2022/12/04 10:56:08;;;;;;;70.47;39.53;;;1.40;99.90;;;;;;5066017;28;20468;-58
2022/12/04 10:58:37;;;;;;;69.90;39.97;;;1.40;99.90;;;;;;5064604;28;20534;-58
2022/12/04 11:01:06;;;;;;;75.63;44.70;;;1.40;99.90;;;;;;5063763;28;22311;-51
2022/12/04 11:03:33;;;;;;;74.93;42.10;;;1.50;99.90;;;;;;5059454;28;20518;-50
2022/12/04 11:06:02;;;;;;;71.83;39.03;;;1.50;99.90;;;;;;5062636;28;20477;-50
2022/12/04 11:08:35;;;;;;;72.80;38.80;;;1.50;99.90;;;;;;5061502;28;21314;-50
2022/12/04 11:11:04;;;;;;;74.67;41.10;;;1.30;99.90;;;;;;5062422;28;20511;-50
2022/12/04 11:13:31;;;;;;;72.40;37.70;;;1.40;99.90;;;;;;5063830;28;20457;-50
2022/12/04 11:15:59;;;;;;;73.60;39.53;;;1.40;99.90;;;;;;5072408;22;20535;-51
2022/12/04 11:18:29;;;;;;;70.93;38.03;;;1.40;99.90;;;;;;5062338;28;20464;-52
2022/12/04 11:20:59;;;;;;;65.70;36.93;;;1.50;99.90;;;;;;5061533;28;20468;-52
2022/12/04 11:23:29;;;;;;;61.50;36.20;;;1.50;99.90;;;;;;5062912;28;20988;-52
2022/12/04 11:29:31;;;;;;;65.30;36.53;;;1.50;99.90;;;;;;5061442;28;20460;-51
2022/12/04 11:32:00;;;;;;;64.60;37.00;;;1.50;99.90;;;;;;5057883;28;20453;-51
2022/12/04 11:34:33;;;;;;;71.73;37.73;;;1.50;99.90;;;;;;5061424;28;20463;-53
2022/12/04 11:37:00;;;;;;;68.80;38.10;;;1.50;99.90;;;;;;5052328;28;20476;-51
2022/12/04 11:39:32;;;;;;;66.43;36.10;;;1.60;99.90;;;;;;5063737;28;20590;-50
2022/12/04 11:42:04;;;;;;;74.80;37.10;;;1.50;99.90;;;;;;5063329;28;20457;-51
2022/12/04 11:44:33;;;;;;;70.93;37.67;;;1.50;99.90;;;;;;5063846;28;20448;-51
2022/12/04 11:47:03;;;;;;;59.50;35.60;;;1.50;99.90;;;;;;5055755;28;20547;-51
2022/12/04 11:49:32;;;;;;;68.23;39.17;;;1.50;99.90;;;;;;5051063;28;20458;-51
2022/12/04 11:52:15;;;;;;;69.73;38.80;;;1.60;99.90;;;;;;5065904;28;20461;-51
2022/12/04 11:54:55;;;;;;;64.17;35.37;;;1.50;99.90;;;;;;5055554;28;20454;-51
2022/12/04 11:57:29;;;;;;;66.87;36.17;;;1.60;99.90;;;;;;5066511;28;20993;-51
2022/12/04 12:00:09;;;;;;;63.67;36.03;;;1.60;99.90;;;;;;5053854;28;20858;-50
2022/12/04 12:02:49;;;;;;;63.40;36.27;;;1.60;99.90;;;;;;5057780;28;20464;-51
2022/12/04 12:05:29;;;;;;;63.40;36.77;;;1.60;99.90;;;;;;5054466;28;20550;-51
2022/12/04 12:08:04;;;;;;;66.30;37.17;;;1.60;99.90;;;;;;5062570;28;20488;-56
2022/12/04 12:10:37;;;;;;;66.10;36.30;;;1.60;99.90;;;;;;5056542;28;20456;-51
2022/12/04 12:13:12;;;;;;;61.47;36.20;;;1.70;99.90;;;;;;5054781;28;20457;-50
2022/12/04 12:15:49;;;;;;;59.67;35.10;;;1.60;99.90;;;;;;5054421;28;20526;-51
2022/12/04 12:18:54;;;;;;;68.23;37.80;;;1.60;99.90;;;;;;5055331;28;20900;-51
2022/12/04 12:21:25;;;;;;;68.40;35.83;;;1.70;99.90;;;;;;5057033;28;20518;-52
2022/12/04 12:24:09;;;;;;;67.90;36.33;;;1.60;99.90;;;;;;5050504;28;20556;-51
2022/12/04 12:26:45;;;;;;;62.90;36.30;;;1.60;99.90;;;;;;5062577;28;20542;-52
2022/12/04 12:29:24;;;;;;;69.17;38.40;;;1.50;99.90;;;;;;5070408;28;20505;-52
2022/12/04 12:32:08;;;;;;;62.93;35.33;;;1.50;99.90;;;;;;5051994;28;20567;-51
2022/12/04 12:34:39;;;;;;;68.53;38.77;;;1.60;99.90;;;;;;5057283;28;21596;-51
2022/12/04 12:37:15;;;;;;;69.77;38.47;;;1.50;99.90;;;;;;5057843;28;20516;-50
2022/12/04 12:39:48;;;;;;;76.43;42.50;;;1.60;99.90;;;;;;5052052;28;20514;-51
2022/12/04 12:42:21;;;;;;;63.57;36.40;;;1.60;99.90;;;;;;5062700;28;20452;-50
2022/12/04 12:44:53;;;;;;;74.20;38.93;;;1.60;99.90;;;;;;5049384;28;20471;-51
2022/12/04 12:47:23;;;;;;;67.90;37.60;;;1.50;99.90;;;;;;5068408;28;20571;-51
2022/12/04 12:49:57;;;;;;;65.50;35.60;;;1.60;99.90;;;;;;5051555;28;20533;-52
2022/12/04 12:52:30;;;;;;;63.27;38.23;;;1.60;99.90;;;;;;5062739;28;20890;-51
2022/12/04 12:55:02;;;;;;;68.70;37.47;;;1.60;99.90;;;;;;5064701;28;20463;-51
2022/12/04 12:57:34;;;;;;;68.73;38.53;;;1.60;99.90;;;;;;5063156;28;20477;-51
2022/12/04 13:00:05;;;;;;;74.63;39.00;;;1.60;99.90;;;;;;5066535;28;20539;-51
2022/12/04 13:02:36;;;;;;;72.33;36.33;;;1.60;99.90;;;;;;5061005;28;20538;-51
2022/12/04 13:05:10;;;;;;;72.53;38.70;;;1.60;99.90;;;;;;5070874;28;20461;-51